TPOK1: Kansas River, State-Line, KS

                                SHEF ID:       TPOK1     MARAIS DES CYGNES R NR KS-MO ST
STATION TYPE:

STAGE STAGE(2) RIV-FLOW BAT-LOAD
ft ft cfs volt
Ccp-Rev Ccp-Rev Ccp-Rev Ccp-Rev
(America/Chicago)
07/14 00:00 5.97 5.90 937 12.50
07/14 01:00 5.95 5.87 927 12.47
07/14 02:00 5.94 5.90 922 12.44
07/14 03:00 5.92 5.89 911 12.42
07/14 04:00 5.93 5.89 916 12.40
07/14 05:00 5.90 5.84 901 12.36
07/14 06:00 5.91 5.84 906 12.37
07/14 07:00 5.89 5.82 896 12.37
07/14 08:00 5.88 5.82 891 12.39
07/14 09:00 5.87 5.80 886 12.79
07/14 10:00 5.85 5.82 876 13.28
07/14 11:00 5.84 5.79 871 12.93
07/14 12:00 5.84 5.79 871 13.31
07/14 13:00 5.83 5.80 866 13.19
07/14 14:00 5.85 5.78 876 13.22
07/14 15:00 5.84 5.76 871 13.07
07/14 16:00 5.84 5.76 871 12.96
07/14 17:00 5.80 5.74 851 12.93
07/14 18:00 5.82 5.74 861 12.75
07/14 19:00 5.80 5.76 851 12.73
07/14 20:00 5.79 5.73 846 12.62
07/14 21:00 5.79 5.73 846 12.57
07/14 22:00 5.78 5.72 841 12.55
07/14 23:00 5.79 5.70 846 12.53
Data processed at Wed 15Jul2026 04:52 GMT

NOTICE: If you are parsing this page

Please convert to using our Data API. Starting early 2026 we will be migrating to: https://water.usace.army.mil with modern pages rendered in JavaScript. When this migration completes you will no longer be able to scrape this page! CWMSDataAPI (CDA)

Timeseries IDs (TSIDs)

TSIDs used from left to right in the data table
MKSL.Stage.Inst.1Hour.0.Ccp-Rev
MKSL.Stage-Alt.Inst.1Hour.0.Ccp-Rev
MKSL.Flow.Inst.1Hour.0.Ccp-Rev
MKSL.Volt-Battery Load.Inst.1Hour.0.Ccp-Rev

                            

All information presented herein is the property of the government of the United States of America and may be revised or deleted at any time without prior notice. Dissemination of this information without the expressed written consent of the Public Affairs Office, Tulsa District U.S. Army Corps of Engineers is strictly prohibited. These data are gathered electronically and, as presented, have NOT undergone any form of quality control. These data are NOT guaranteed to be valid or correct.